sensor_id;sensor_type;location;lat;lon;timestamp;P1;durP1;ratioP1;P2;durP2;ratioP2
33696;SDS011;20031;43.416;23.232;2022-11-15T00:01:21;31.42;;;18.00;;
33696;SDS011;20031;43.416;23.232;2022-11-15T00:03:50;30.10;;;16.83;;
33696;SDS011;20031;43.416;23.232;2022-11-15T00:06:16;26.00;;;16.50;;
33696;SDS011;20031;43.416;23.232;2022-11-15T00:08:41;24.92;;;16.13;;
33696;SDS011;20031;43.416;23.232;2022-11-15T00:11:08;29.73;;;17.67;;
33696;SDS011;20031;43.416;23.232;2022-11-15T00:13:35;27.05;;;16.95;;
33696;SDS011;20031;43.416;23.232;2022-11-15T00:16:01;37.38;;;22.50;;
33696;SDS011;20031;43.416;23.232;2022-11-15T00:18:28;40.15;;;25.45;;
33696;SDS011;20031;43.416;23.232;2022-11-15T00:20:54;35.72;;;22.70;;
33696;SDS011;20031;43.416;23.232;2022-11-15T00:23:20;35.83;;;20.42;;
33696;SDS011;20031;43.416;23.232;2022-11-15T00:25:46;31.98;;;19.80;;
33696;SDS011;20031;43.416;23.232;2022-11-15T00:28:11;33.22;;;20.60;;
33696;SDS011;20031;43.416;23.232;2022-11-15T00:30:37;30.70;;;18.80;;
33696;SDS011;20031;43.416;23.232;2022-11-15T00:33:06;33.30;;;19.05;;
33696;SDS011;20031;43.416;23.232;2022-11-15T00:35:32;33.05;;;18.98;;
33696;SDS011;20031;43.416;23.232;2022-11-15T00:37:59;32.28;;;17.77;;
33696;SDS011;20031;43.416;23.232;2022-11-15T00:40:25;28.50;;;16.85;;
33696;SDS011;20031;43.416;23.232;2022-11-15T00:42:50;28.23;;;16.95;;
33696;SDS011;20031;43.416;23.232;2022-11-15T00:45:15;26.98;;;16.17;;
33696;SDS011;20031;43.416;23.232;2022-11-15T00:47:43;27.85;;;14.88;;
33696;SDS011;20031;43.416;23.232;2022-11-15T00:50:10;28.10;;;14.30;;
33696;SDS011;20031;43.416;23.232;2022-11-15T00:52:35;24.65;;;14.13;;
33696;SDS011;20031;43.416;23.232;2022-11-15T00:55:01;27.13;;;15.07;;
33696;SDS011;20031;43.416;23.232;2022-11-15T00:57:26;30.27;;;15.35;;
33696;SDS011;20031;43.416;23.232;2022-11-15T00:59:52;23.35;;;13.60;;
33696;SDS011;20031;43.416;23.232;2022-11-15T01:02:17;23.48;;;14.23;;
33696;SDS011;20031;43.416;23.232;2022-11-15T01:04:43;23.90;;;13.48;;
33696;SDS011;20031;43.416;23.232;2022-11-15T01:07:08;28.25;;;14.77;;
33696;SDS011;20031;43.416;23.232;2022-11-15T01:09:34;26.13;;;14.25;;
33696;SDS011;20031;43.416;23.232;2022-11-15T01:11:59;22.42;;;13.18;;
33696;SDS011;20031;43.416;23.232;2022-11-15T01:14:24;27.60;;;13.57;;
33696;SDS011;20031;43.416;23.232;2022-11-15T01:16:50;22.48;;;12.98;;
33696;SDS011;20031;43.416;23.232;2022-11-15T01:19:15;20.95;;;13.02;;
33696;SDS011;20031;43.416;23.232;2022-11-15T01:21:41;23.60;;;13.07;;
33696;SDS011;20031;43.416;23.232;2022-11-15T01:24:07;24.10;;;13.65;;
33696;SDS011;20031;43.416;23.232;2022-11-15T01:26:36;22.80;;;13.38;;
33696;SDS011;20031;43.416;23.232;2022-11-15T01:29:02;21.52;;;13.40;;
33696;SDS011;20031;43.416;23.232;2022-11-15T01:31:27;20.92;;;12.63;;
33696;SDS011;20031;43.416;23.232;2022-11-15T01:33:53;23.80;;;13.18;;
33696;SDS011;20031;43.416;23.232;2022-11-15T01:36:19;22.42;;;12.98;;
33696;SDS011;20031;43.416;23.232;2022-11-15T01:38:52;23.00;;;13.05;;
33696;SDS011;20031;43.416;23.232;2022-11-15T01:41:21;23.05;;;14.10;;
33696;SDS011;20031;43.416;23.232;2022-11-15T01:43:56;24.50;;;13.57;;
33696;SDS011;20031;43.416;23.232;2022-11-15T01:49:17;22.27;;;12.32;;
33696;SDS011;20031;43.416;23.232;2022-11-15T01:51:44;20.58;;;12.13;;
33696;SDS011;20031;43.416;23.232;2022-11-15T01:54:11;22.35;;;12.82;;
33696;SDS011;20031;43.416;23.232;2022-11-15T01:57:04;24.67;;;13.63;;
33696;SDS011;20031;43.416;23.232;2022-11-15T01:59:31;20.98;;;12.05;;
33696;SDS011;20031;43.416;23.232;2022-11-15T02:01:58;18.60;;;12.15;;
33696;SDS011;20031;43.416;23.232;2022-11-15T02:04:42;22.52;;;12.32;;
33696;SDS011;20031;43.416;23.232;2022-11-15T02:07:11;20.77;;;12.20;;
33696;SDS011;20031;43.416;23.232;2022-11-15T02:09:39;21.77;;;12.40;;
33696;SDS011;20031;43.416;23.232;2022-11-15T02:12:05;22.88;;;12.80;;
33696;SDS011;20031;43.416;23.232;2022-11-15T02:14:33;21.70;;;11.98;;
33696;SDS011;20031;43.416;23.232;2022-11-15T02:31:06;17.15;;;10.70;;
33696;SDS011;20031;43.416;23.232;2022-11-15T02:34:08;17.23;;;10.02;;
33696;SDS011;20031;43.416;23.232;2022-11-15T02:36:54;18.92;;;11.27;;
33696;SDS011;20031;43.416;23.232;2022-11-15T02:42:11;21.08;;;10.68;;
33696;SDS011;20031;43.416;23.232;2022-11-15T02:45:01;17.77;;;10.68;;
33696;SDS011;20031;43.416;23.232;2022-11-15T02:47:32;17.40;;;10.80;;
33696;SDS011;20031;43.416;23.232;2022-11-15T02:50:08;19.48;;;10.38;;
33696;SDS011;20031;43.416;23.232;2022-11-15T02:52:37;16.45;;;10.48;;
33696;SDS011;20031;43.416;23.232;2022-11-15T02:55:03;15.38;;;10.15;;
33696;SDS011;20031;43.416;23.232;2022-11-15T02:57:49;20.33;;;10.73;;
33696;SDS011;20031;43.416;23.232;2022-11-15T03:00:18;22.20;;;10.52;;
33696;SDS011;20031;43.416;23.232;2022-11-15T03:03:02;17.35;;;10.30;;
33696;SDS011;20031;43.416;23.232;2022-11-15T03:11:34;15.57;;;9.60;;
33696;SDS011;20031;43.416;23.232;2022-11-15T03:19:39;12.90;;;8.85;;
33696;SDS011;20031;43.416;23.232;2022-11-15T03:22:06;15.02;;;9.90;;
33696;SDS011;20031;43.416;23.232;2022-11-15T03:24:36;21.20;;;10.35;;
33696;SDS011;20031;43.416;23.232;2022-11-15T03:27:03;14.13;;;9.25;;
33696;SDS011;20031;43.416;23.232;2022-11-15T03:29:39;15.88;;;9.43;;
33696;SDS011;20031;43.416;23.232;2022-11-15T03:32:12;15.70;;;9.43;;
33696;SDS011;20031;43.416;23.232;2022-11-15T03:37:16;14.10;;;8.85;;
33696;SDS011;20031;43.416;23.232;2022-11-15T03:39:46;13.88;;;8.25;;
33696;SDS011;20031;43.416;23.232;2022-11-15T03:44:58;16.20;;;9.25;;
33696;SDS011;20031;43.416;23.232;2022-11-15T03:47:32;16.30;;;9.10;;
33696;SDS011;20031;43.416;23.232;2022-11-15T03:50:08;13.98;;;8.88;;
33696;SDS011;20031;43.416;23.232;2022-11-15T03:52:37;14.35;;;9.70;;
33696;SDS011;20031;43.416;23.232;2022-11-15T03:55:03;15.93;;;8.95;;
33696;SDS011;20031;43.416;23.232;2022-11-15T03:57:30;16.67;;;9.80;;
33696;SDS011;20031;43.416;23.232;2022-11-15T03:59:56;14.95;;;9.48;;
33696;SDS011;20031;43.416;23.232;2022-11-15T04:02:21;19.48;;;10.43;;
33696;SDS011;20031;43.416;23.232;2022-11-15T04:04:47;19.40;;;10.93;;
33696;SDS011;20031;43.416;23.232;2022-11-15T04:07:12;20.10;;;11.25;;
33696;SDS011;20031;43.416;23.232;2022-11-15T04:09:38;18.65;;;10.05;;
33696;SDS011;20031;43.416;23.232;2022-11-15T04:12:23;15.45;;;9.75;;
33696;SDS011;20031;43.416;23.232;2022-11-15T04:17:37;16.02;;;10.75;;
33696;SDS011;20031;43.416;23.232;2022-11-15T04:20:04;15.38;;;9.65;;
33696;SDS011;20031;43.416;23.232;2022-11-15T04:22:51;14.43;;;10.27;;
33696;SDS011;20031;43.416;23.232;2022-11-15T04:25:36;14.77;;;9.43;;
33696;SDS011;20031;43.416;23.232;2022-11-15T04:28:01;14.10;;;9.02;;
33696;SDS011;20031;43.416;23.232;2022-11-15T04:30:27;14.00;;;8.45;;
33696;SDS011;20031;43.416;23.232;2022-11-15T04:32:52;13.15;;;8.55;;
33696;SDS011;20031;43.416;23.232;2022-11-15T04:35:18;14.88;;;8.10;;
33696;SDS011;20031;43.416;23.232;2022-11-15T04:37:43;13.38;;;8.25;;
33696;SDS011;20031;43.416;23.232;2022-11-15T04:40:09;15.18;;;8.88;;
33696;SDS011;20031;43.416;23.232;2022-11-15T04:42:34;17.13;;;9.85;;
33696;SDS011;20031;43.416;23.232;2022-11-15T04:45:00;15.63;;;9.73;;
33696;SDS011;20031;43.416;23.232;2022-11-15T04:47:25;18.77;;;10.10;;
33696;SDS011;20031;43.416;23.232;2022-11-15T04:49:52;16.33;;;9.93;;
33696;SDS011;20031;43.416;23.232;2022-11-15T04:52:18;15.85;;;9.02;;
33696;SDS011;20031;43.416;23.232;2022-11-15T04:54:43;14.02;;;9.15;;
33696;SDS011;20031;43.416;23.232;2022-11-15T04:57:09;16.10;;;9.38;;
33696;SDS011;20031;43.416;23.232;2022-11-15T04:59:35;18.45;;;9.35;;
33696;SDS011;20031;43.416;23.232;2022-11-15T05:02:00;19.10;;;9.77;;
33696;SDS011;20031;43.416;23.232;2022-11-15T05:04:26;19.35;;;9.05;;
33696;SDS011;20031;43.416;23.232;2022-11-15T05:06:51;14.75;;;9.68;;
33696;SDS011;20031;43.416;23.232;2022-11-15T05:09:18;15.45;;;10.07;;
33696;SDS011;20031;43.416;23.232;2022-11-15T05:11:44;17.13;;;10.27;;
33696;SDS011;20031;43.416;23.232;2022-11-15T05:14:10;14.82;;;9.57;;
33696;SDS011;20031;43.416;23.232;2022-11-15T05:16:36;17.60;;;10.20;;
33696;SDS011;20031;43.416;23.232;2022-11-15T05:19:02;13.95;;;9.10;;
33696;SDS011;20031;43.416;23.232;2022-11-15T05:21:27;15.90;;;10.18;;
33696;SDS011;20031;43.416;23.232;2022-11-15T05:23:53;15.60;;;9.70;;
33696;SDS011;20031;43.416;23.232;2022-11-15T05:26:18;17.20;;;9.90;;
33696;SDS011;20031;43.416;23.232;2022-11-15T05:28:44;18.38;;;11.13;;
33696;SDS011;20031;43.416;23.232;2022-11-15T05:31:10;19.90;;;12.05;;
33696;SDS011;20031;43.416;23.232;2022-11-15T05:33:38;23.00;;;12.25;;
33696;SDS011;20031;43.416;23.232;2022-11-15T05:36:07;18.13;;;10.77;;
33696;SDS011;20031;43.416;23.232;2022-11-15T05:38:38;16.20;;;9.88;;
33696;SDS011;20031;43.416;23.232;2022-11-15T05:41:04;18.55;;;10.38;;
33696;SDS011;20031;43.416;23.232;2022-11-15T05:43:31;17.10;;;9.75;;
33696;SDS011;20031;43.416;23.232;2022-11-15T05:45:59;19.63;;;9.77;;
33696;SDS011;20031;43.416;23.232;2022-11-15T05:48:29;15.15;;;9.50;;
33696;SDS011;20031;43.416;23.232;2022-11-15T05:50:54;15.65;;;8.88;;
33696;SDS011;20031;43.416;23.232;2022-11-15T05:53:21;13.25;;;9.18;;
33696;SDS011;20031;43.416;23.232;2022-11-15T05:55:49;17.73;;;10.02;;
33696;SDS011;20031;43.416;23.232;2022-11-15T05:58:15;15.55;;;9.45;;
33696;SDS011;20031;43.416;23.232;2022-11-15T06:00:41;19.65;;;10.07;;
33696;SDS011;20031;43.416;23.232;2022-11-15T06:03:08;15.32;;;10.40;;
33696;SDS011;20031;43.416;23.232;2022-11-15T06:05:34;18.05;;;10.35;;
33696;SDS011;20031;43.416;23.232;2022-11-15T06:07:59;22.65;;;10.77;;
33696;SDS011;20031;43.416;23.232;2022-11-15T06:10:25;17.13;;;10.65;;
33696;SDS011;20031;43.416;23.232;2022-11-15T06:13:00;17.52;;;10.80;;
33696;SDS011;20031;43.416;23.232;2022-11-15T06:15:28;15.85;;;9.35;;
33696;SDS011;20031;43.416;23.232;2022-11-15T06:17:57;17.75;;;9.65;;
33696;SDS011;20031;43.416;23.232;2022-11-15T06:20:23;18.50;;;10.38;;
33696;SDS011;20031;43.416;23.232;2022-11-15T06:22:49;22.05;;;10.70;;
33696;SDS011;20031;43.416;23.232;2022-11-15T06:25:15;17.90;;;10.43;;
33696;SDS011;20031;43.416;23.232;2022-11-15T06:27:40;17.55;;;10.05;;
33696;SDS011;20031;43.416;23.232;2022-11-15T06:30:06;24.00;;;12.35;;
33696;SDS011;20031;43.416;23.232;2022-11-15T06:32:31;19.67;;;11.35;;
33696;SDS011;20031;43.416;23.232;2022-11-15T06:34:57;19.27;;;11.48;;
33696;SDS011;20031;43.416;23.232;2022-11-15T06:37:22;25.02;;;14.27;;
33696;SDS011;20031;43.416;23.232;2022-11-15T06:39:48;19.48;;;12.05;;
33696;SDS011;20031;43.416;23.232;2022-11-15T06:42:13;17.67;;;11.52;;
33696;SDS011;20031;43.416;23.232;2022-11-15T06:44:39;30.98;;;16.48;;
33696;SDS011;20031;43.416;23.232;2022-11-15T06:47:04;25.23;;;13.50;;
33696;SDS011;20031;43.416;23.232;2022-11-15T06:49:30;18.15;;;11.80;;
33696;SDS011;20031;43.416;23.232;2022-11-15T06:51:55;27.77;;;14.18;;
33696;SDS011;20031;43.416;23.232;2022-11-15T06:54:21;25.15;;;13.10;;
33696;SDS011;20031;43.416;23.232;2022-11-15T06:56:47;14.63;;;9.70;;
33696;SDS011;20031;43.416;23.232;2022-11-15T06:59:12;17.10;;;9.55;;
33696;SDS011;20031;43.416;23.232;2022-11-15T07:01:38;20.35;;;11.43;;
33696;SDS011;20031;43.416;23.232;2022-11-15T07:04:03;24.00;;;14.23;;
33696;SDS011;20031;43.416;23.232;2022-11-15T07:06:29;21.63;;;13.85;;
33696;SDS011;20031;43.416;23.232;2022-11-15T07:08:54;19.98;;;12.00;;
33696;SDS011;20031;43.416;23.232;2022-11-15T07:11:20;16.58;;;10.82;;
33696;SDS011;20031;43.416;23.232;2022-11-15T07:13:45;21.70;;;9.70;;
33696;SDS011;20031;43.416;23.232;2022-11-15T07:16:10;19.27;;;11.50;;
33696;SDS011;20031;43.416;23.232;2022-11-15T07:18:39;19.15;;;9.93;;
33696;SDS011;20031;43.416;23.232;2022-11-15T07:21:06;14.75;;;8.38;;
33696;SDS011;20031;43.416;23.232;2022-11-15T07:23:36;16.90;;;9.43;;
33696;SDS011;20031;43.416;23.232;2022-11-15T07:26:05;19.08;;;9.77;;
33696;SDS011;20031;43.416;23.232;2022-11-15T07:28:31;16.70;;;9.60;;
33696;SDS011;20031;43.416;23.232;2022-11-15T07:30:57;19.27;;;10.57;;
33696;SDS011;20031;43.416;23.232;2022-11-15T07:33:22;15.18;;;9.90;;
33696;SDS011;20031;43.416;23.232;2022-11-15T07:35:48;16.83;;;10.07;;
33696;SDS011;20031;43.416;23.232;2022-11-15T07:38:13;24.33;;;14.88;;
33696;SDS011;20031;43.416;23.232;2022-11-15T07:40:40;25.20;;;12.68;;
33696;SDS011;20031;43.416;23.232;2022-11-15T07:43:06;18.50;;;11.18;;
33696;SDS011;20031;43.416;23.232;2022-11-15T07:45:33;21.65;;;10.38;;
33696;SDS011;20031;43.416;23.232;2022-11-15T07:47:59;29.40;;;13.02;;
33696;SDS011;20031;43.416;23.232;2022-11-15T07:50:25;52.67;;;15.77;;
33696;SDS011;20031;43.416;23.232;2022-11-15T07:52:58;29.70;;;11.55;;
33696;SDS011;20031;43.416;23.232;2022-11-15T07:55:25;18.45;;;9.60;;
33696;SDS011;20031;43.416;23.232;2022-11-15T07:57:52;15.20;;;9.57;;
33696;SDS011;20031;43.416;23.232;2022-11-15T08:00:18;17.38;;;8.52;;
33696;SDS011;20031;43.416;23.232;2022-11-15T08:02:44;16.98;;;9.38;;
33696;SDS011;20031;43.416;23.232;2022-11-15T08:05:09;18.08;;;8.27;;
33696;SDS011;20031;43.416;23.232;2022-11-15T08:07:35;16.65;;;8.02;;
33696;SDS011;20031;43.416;23.232;2022-11-15T08:10:00;14.27;;;6.80;;
33696;SDS011;20031;43.416;23.232;2022-11-15T08:12:27;10.10;;;5.85;;
33696;SDS011;20031;43.416;23.232;2022-11-15T08:14:54;8.38;;;4.88;;
33696;SDS011;20031;43.416;23.232;2022-11-15T08:17:20;8.60;;;4.78;;
33696;SDS011;20031;43.416;23.232;2022-11-15T08:19:46;7.40;;;4.80;;
33696;SDS011;20031;43.416;23.232;2022-11-15T08:22:13;7.28;;;4.70;;
33696;SDS011;20031;43.416;23.232;2022-11-15T08:24:38;7.13;;;4.85;;
33696;SDS011;20031;43.416;23.232;2022-11-15T08:27:04;13.05;;;7.50;;
33696;SDS011;20031;43.416;23.232;2022-11-15T08:29:29;7.63;;;5.20;;
33696;SDS011;20031;43.416;23.232;2022-11-15T08:31:55;10.38;;;5.13;;
33696;SDS011;20031;43.416;23.232;2022-11-15T08:34:21;12.82;;;7.78;;
33696;SDS011;20031;43.416;23.232;2022-11-15T08:36:47;7.45;;;4.95;;
33696;SDS011;20031;43.416;23.232;2022-11-15T08:39:12;9.60;;;5.10;;
33696;SDS011;20031;43.416;23.232;2022-11-15T08:41:38;7.93;;;5.35;;
33696;SDS011;20031;43.416;23.232;2022-11-15T08:44:04;15.73;;;7.05;;
33696;SDS011;20031;43.416;23.232;2022-11-15T08:46:30;13.93;;;7.68;;
33696;SDS011;20031;43.416;23.232;2022-11-15T08:48:55;9.27;;;6.18;;
33696;SDS011;20031;43.416;23.232;2022-11-15T08:51:21;9.15;;;5.70;;
33696;SDS011;20031;43.416;23.232;2022-11-15T08:53:46;9.07;;;5.88;;
33696;SDS011;20031;43.416;23.232;2022-11-15T08:56:12;12.13;;;7.00;;
33696;SDS011;20031;43.416;23.232;2022-11-15T08:58:39;10.50;;;6.50;;
33696;SDS011;20031;43.416;23.232;2022-11-15T09:01:05;10.75;;;5.90;;
33696;SDS011;20031;43.416;23.232;2022-11-15T09:03:31;11.07;;;6.72;;
33696;SDS011;20031;43.416;23.232;2022-11-15T09:05:57;13.88;;;9.10;;
33696;SDS011;20031;43.416;23.232;2022-11-15T09:08:25;24.58;;;12.43;;
33696;SDS011;20031;43.416;23.232;2022-11-15T09:10:53;10.45;;;6.50;;
33696;SDS011;20031;43.416;23.232;2022-11-15T09:13:19;11.50;;;8.02;;
33696;SDS011;20031;43.416;23.232;2022-11-15T09:15:44;15.73;;;8.55;;
33696;SDS011;20031;43.416;23.232;2022-11-15T09:18:10;8.90;;;6.40;;
33696;SDS011;20031;43.416;23.232;2022-11-15T09:20:35;11.75;;;6.90;;
33696;SDS011;20031;43.416;23.232;2022-11-15T09:23:01;10.18;;;7.20;;
33696;SDS011;20031;43.416;23.232;2022-11-15T09:25:28;11.65;;;7.03;;
33696;SDS011;20031;43.416;23.232;2022-11-15T09:27:53;12.35;;;6.60;;
33696;SDS011;20031;43.416;23.232;2022-11-15T09:30:19;10.50;;;6.60;;
33696;SDS011;20031;43.416;23.232;2022-11-15T09:32:44;12.93;;;6.50;;
33696;SDS011;20031;43.416;23.232;2022-11-15T09:35:10;9.45;;;6.45;;
33696;SDS011;20031;43.416;23.232;2022-11-15T09:37:35;14.07;;;8.40;;
33696;SDS011;20031;43.416;23.232;2022-11-15T09:40:01;9.32;;;6.32;;
33696;SDS011;20031;43.416;23.232;2022-11-15T09:45:23;10.20;;;6.07;;
33696;SDS011;20031;43.416;23.232;2022-11-15T09:50:47;10.88;;;7.07;;
33696;SDS011;20031;43.416;23.232;2022-11-15T09:53:18;10.90;;;7.40;;
33696;SDS011;20031;43.416;23.232;2022-11-15T09:56:01;15.57;;;7.97;;
33696;SDS011;20031;43.416;23.232;2022-11-15T09:58:39;13.27;;;9.38;;
33696;SDS011;20031;43.416;23.232;2022-11-15T10:01:20;16.83;;;10.20;;
33696;SDS011;20031;43.416;23.232;2022-11-15T10:04:08;10.48;;;6.93;;
33696;SDS011;20031;43.416;23.232;2022-11-15T10:06:34;10.50;;;6.68;;
33696;SDS011;20031;43.416;23.232;2022-11-15T10:09:16;13.10;;;7.72;;
33696;SDS011;20031;43.416;23.232;2022-11-15T10:11:47;14.35;;;8.48;;
33696;SDS011;20031;43.416;23.232;2022-11-15T10:14:18;18.58;;;7.05;;
33696;SDS011;20031;43.416;23.232;2022-11-15T10:25:25;12.85;;;7.88;;
33696;SDS011;20031;43.416;23.232;2022-11-15T10:28:01;12.57;;;8.10;;
33696;SDS011;20031;43.416;23.232;2022-11-15T10:30:49;12.70;;;8.45;;
33696;SDS011;20031;43.416;23.232;2022-11-15T10:33:29;14.88;;;8.77;;
33696;SDS011;20031;43.416;23.232;2022-11-15T10:38:33;15.35;;;8.48;;
33696;SDS011;20031;43.416;23.232;2022-11-15T10:43:41;10.07;;;6.72;;
33696;SDS011;20031;43.416;23.232;2022-11-15T10:46:25;9.75;;;6.47;;
33696;SDS011;20031;43.416;23.232;2022-11-15T10:48:52;13.20;;;7.05;;
33696;SDS011;20031;43.416;23.232;2022-11-15T10:51:22;15.60;;;7.85;;
33696;SDS011;20031;43.416;23.232;2022-11-15T10:53:53;17.25;;;8.55;;
33696;SDS011;20031;43.416;23.232;2022-11-15T10:56:21;11.13;;;7.25;;
33696;SDS011;20031;43.416;23.232;2022-11-15T10:58:53;11.25;;;7.70;;
33696;SDS011;20031;43.416;23.232;2022-11-15T11:01:25;13.32;;;8.55;;
33696;SDS011;20031;43.416;23.232;2022-11-15T11:06:28;10.57;;;7.72;;
33696;SDS011;20031;43.416;23.232;2022-11-15T11:09:01;14.23;;;8.13;;
33696;SDS011;20031;43.416;23.232;2022-11-15T11:11:48;13.55;;;7.57;;
33696;SDS011;20031;43.416;23.232;2022-11-15T11:14:22;17.65;;;8.73;;
33696;SDS011;20031;43.416;23.232;2022-11-15T11:19:55;11.20;;;7.00;;
33696;SDS011;20031;43.416;23.232;2022-11-15T11:22:35;13.65;;;7.43;;
33696;SDS011;20031;43.416;23.232;2022-11-15T11:26:05;10.40;;;7.38;;
33696;SDS011;20031;43.416;23.232;2022-11-15T11:34:13;18.52;;;10.57;;
33696;SDS011;20031;43.416;23.232;2022-11-15T11:36:51;12.98;;;8.43;;
33696;SDS011;20031;43.416;23.232;2022-11-15T11:40:12;12.55;;;7.72;;
33696;SDS011;20031;43.416;23.232;2022-11-15T11:42:29;15.40;;;8.10;;
33696;SDS011;20031;43.416;23.232;2022-11-15T11:45:36;13.10;;;7.75;;
33696;SDS011;20031;43.416;23.232;2022-11-15T11:50:36;14.25;;;7.82;;
33696;SDS011;20031;43.416;23.232;2022-11-15T11:53:14;11.70;;;7.30;;
33696;SDS011;20031;43.416;23.232;2022-11-15T11:55:52;13.52;;;7.68;;
33696;SDS011;20031;43.416;23.232;2022-11-15T11:58:34;14.45;;;8.13;;
33696;SDS011;20031;43.416;23.232;2022-11-15T12:01:12;13.60;;;8.02;;
33696;SDS011;20031;43.416;23.232;2022-11-15T12:03:48;15.32;;;8.23;;
33696;SDS011;20031;43.416;23.232;2022-11-15T12:09:12;14.73;;;7.47;;
33696;SDS011;20031;43.416;23.232;2022-11-15T12:11:43;12.93;;;7.43;;
33696;SDS011;20031;43.416;23.232;2022-11-15T12:17:24;10.70;;;7.65;;
33696;SDS011;20031;43.416;23.232;2022-11-15T12:19:52;11.27;;;7.28;;
33696;SDS011;20031;43.416;23.232;2022-11-15T12:22:23;11.90;;;8.18;;
33696;SDS011;20031;43.416;23.232;2022-11-15T12:30:00;11.35;;;7.18;;
33696;SDS011;20031;43.416;23.232;2022-11-15T12:32:33;12.18;;;8.27;;
33696;SDS011;20031;43.416;23.232;2022-11-15T12:35:01;9.35;;;6.82;;
33696;SDS011;20031;43.416;23.232;2022-11-15T12:42:40;11.43;;;7.38;;
33696;SDS011;20031;43.416;23.232;2022-11-15T12:45:24;12.48;;;7.88;;
33696;SDS011;20031;43.416;23.232;2022-11-15T12:47:53;12.98;;;7.57;;
33696;SDS011;20031;43.416;23.232;2022-11-15T12:53:25;15.38;;;8.82;;
33696;SDS011;20031;43.416;23.232;2022-11-15T12:58:47;16.45;;;9.68;;
33696;SDS011;20031;43.416;23.232;2022-11-15T13:06:34;18.63;;;8.02;;
33696;SDS011;20031;43.416;23.232;2022-11-15T13:09:49;12.02;;;8.00;;
33696;SDS011;20031;43.416;23.232;2022-11-15T13:12:00;15.02;;;8.02;;
33696;SDS011;20031;43.416;23.232;2022-11-15T13:23:32;11.02;;;6.80;;
33696;SDS011;20031;43.416;23.232;2022-11-15T13:28:02;12.15;;;6.40;;
33696;SDS011;20031;43.416;23.232;2022-11-15T13:30:35;21.27;;;12.00;;
33696;SDS011;20031;43.416;23.232;2022-11-15T13:33:09;13.18;;;7.60;;
33696;SDS011;20031;43.416;23.232;2022-11-15T13:35:41;12.43;;;7.47;;
33696;SDS011;20031;43.416;23.232;2022-11-15T13:38:12;13.77;;;7.38;;
33696;SDS011;20031;43.416;23.232;2022-11-15T13:41:19;9.57;;;6.47;;
33696;SDS011;20031;43.416;23.232;2022-11-15T13:43:47;11.52;;;7.10;;
33696;SDS011;20031;43.416;23.232;2022-11-15T13:46:24;11.07;;;6.75;;
33696;SDS011;20031;43.416;23.232;2022-11-15T13:49:02;11.20;;;6.82;;
33696;SDS011;20031;43.416;23.232;2022-11-15T13:56:39;16.27;;;7.45;;
33696;SDS011;20031;43.416;23.232;2022-11-15T13:59:31;12.05;;;7.65;;
33696;SDS011;20031;43.416;23.232;2022-11-15T14:01:58;12.60;;;8.50;;
33696;SDS011;20031;43.416;23.232;2022-11-15T14:04:27;25.02;;;10.02;;
33696;SDS011;20031;43.416;23.232;2022-11-15T14:06:57;17.35;;;9.38;;
33696;SDS011;20031;43.416;23.232;2022-11-15T14:09:37;12.02;;;8.43;;
33696;SDS011;20031;43.416;23.232;2022-11-15T14:15:00;14.18;;;8.77;;
33696;SDS011;20031;43.416;23.232;2022-11-15T14:17:42;13.18;;;8.70;;
33696;SDS011;20031;43.416;23.232;2022-11-15T14:22:57;16.92;;;9.10;;
33696;SDS011;20031;43.416;23.232;2022-11-15T14:25:51;16.23;;;8.93;;
33696;SDS011;20031;43.416;23.232;2022-11-15T14:30:50;16.92;;;9.18;;
33696;SDS011;20031;43.416;23.232;2022-11-15T14:35:44;17.50;;;10.93;;
33696;SDS011;20031;43.416;23.232;2022-11-15T14:38:10;12.80;;;8.93;;
33696;SDS011;20031;43.416;23.232;2022-11-15T14:40:35;14.13;;;9.18;;
33696;SDS011;20031;43.416;23.232;2022-11-15T14:43:01;12.75;;;8.80;;
33696;SDS011;20031;43.416;23.232;2022-11-15T14:45:26;19.75;;;10.10;;
33696;SDS011;20031;43.416;23.232;2022-11-15T14:47:52;13.10;;;8.85;;
33696;SDS011;20031;43.416;23.232;2022-11-15T14:50:19;13.50;;;8.75;;
33696;SDS011;20031;43.416;23.232;2022-11-15T14:52:46;16.77;;;8.85;;
33696;SDS011;20031;43.416;23.232;2022-11-15T14:55:29;25.20;;;9.45;;
33696;SDS011;20031;43.416;23.232;2022-11-15T14:58:01;13.80;;;8.38;;
33696;SDS011;20031;43.416;23.232;2022-11-15T15:00:31;13.35;;;9.07;;
33696;SDS011;20031;43.416;23.232;2022-11-15T15:02:57;15.38;;;9.05;;
33696;SDS011;20031;43.416;23.232;2022-11-15T15:07:58;11.40;;;7.70;;
33696;SDS011;20031;43.416;23.232;2022-11-15T15:10:23;15.35;;;8.65;;
33696;SDS011;20031;43.416;23.232;2022-11-15T15:12:49;14.43;;;9.70;;
33696;SDS011;20031;43.416;23.232;2022-11-15T15:15:16;22.13;;;9.77;;
33696;SDS011;20031;43.416;23.232;2022-11-15T15:17:46;15.30;;;9.65;;
33696;SDS011;20031;43.416;23.232;2022-11-15T15:20:12;18.38;;;10.65;;
33696;SDS011;20031;43.416;23.232;2022-11-15T15:22:37;16.92;;;9.90;;
33696;SDS011;20031;43.416;23.232;2022-11-15T15:25:09;15.73;;;10.10;;
33696;SDS011;20031;43.416;23.232;2022-11-15T15:27:53;18.23;;;11.45;;
33696;SDS011;20031;43.416;23.232;2022-11-15T15:30:19;23.65;;;12.43;;
33696;SDS011;20031;43.416;23.232;2022-11-15T15:32:44;24.63;;;12.75;;
33696;SDS011;20031;43.416;23.232;2022-11-15T15:35:13;19.77;;;12.18;;
33696;SDS011;20031;43.416;23.232;2022-11-15T15:37:40;17.83;;;12.00;;
33696;SDS011;20031;43.416;23.232;2022-11-15T15:40:17;17.77;;;11.57;;
33696;SDS011;20031;43.416;23.232;2022-11-15T15:42:45;22.10;;;13.32;;
33696;SDS011;20031;43.416;23.232;2022-11-15T15:45:11;17.70;;;12.43;;
33696;SDS011;20031;43.416;23.232;2022-11-15T15:47:36;18.40;;;12.32;;
33696;SDS011;20031;43.416;23.232;2022-11-15T15:50:03;19.20;;;13.20;;
33696;SDS011;20031;43.416;23.232;2022-11-15T15:52:29;17.75;;;12.27;;
33696;SDS011;20031;43.416;23.232;2022-11-15T15:54:54;16.10;;;10.95;;
33696;SDS011;20031;43.416;23.232;2022-11-15T15:57:20;15.43;;;10.77;;
33696;SDS011;20031;43.416;23.232;2022-11-15T15:59:45;17.05;;;11.02;;
33696;SDS011;20031;43.416;23.232;2022-11-15T16:02:14;16.15;;;10.32;;
33696;SDS011;20031;43.416;23.232;2022-11-15T16:04:39;15.70;;;10.38;;
33696;SDS011;20031;43.416;23.232;2022-11-15T16:07:05;15.63;;;10.20;;
33696;SDS011;20031;43.416;23.232;2022-11-15T16:09:40;15.65;;;10.57;;
33696;SDS011;20031;43.416;23.232;2022-11-15T16:12:24;16.55;;;9.80;;
33696;SDS011;20031;43.416;23.232;2022-11-15T16:14:49;15.02;;;9.75;;
33696;SDS011;20031;43.416;23.232;2022-11-15T16:17:19;15.15;;;10.20;;
33696;SDS011;20031;43.416;23.232;2022-11-15T16:19:46;14.35;;;10.13;;
33696;SDS011;20031;43.416;23.232;2022-11-15T16:22:12;16.75;;;10.32;;
33696;SDS011;20031;43.416;23.232;2022-11-15T16:24:37;15.07;;;9.85;;
33696;SDS011;20031;43.416;23.232;2022-11-15T16:27:03;14.90;;;10.65;;
33696;SDS011;20031;43.416;23.232;2022-11-15T16:29:28;17.33;;;10.35;;
33696;SDS011;20031;43.416;23.232;2022-11-15T16:31:54;15.50;;;9.68;;
33696;SDS011;20031;43.416;23.232;2022-11-15T16:34:20;15.60;;;10.65;;
33696;SDS011;20031;43.416;23.232;2022-11-15T16:36:46;15.75;;;10.75;;
33696;SDS011;20031;43.416;23.232;2022-11-15T16:39:12;20.50;;;10.60;;